Time;durP1;ratioP1;P1;durP2;ratioP2;P2;SDS_P1;SDS_P2;PMS_P1;PMS_P2;Temp;Humidity;BMP_temperature;BMP_pressure;BME280_temperature;BME280_humidity;BME280_pressure;Samples;Min_cycle;Max_cycle;Signal;HPM_P1;HPM_P2
2021/01/11 00:02:19;;;;;;;33.23;14.83;;;-4.10;99.90;;;;;;5056270;28;20668;-71
2021/01/11 00:04:45;;;;;;;43.37;13.73;;;-4.10;99.90;;;;;;5055121;28;20450;-71
2021/01/11 00:07:11;;;;;;;32.23;14.70;;;-4.10;99.90;;;;;;5056166;28;20780;-71
2021/01/11 00:09:37;;;;;;;26.33;14.30;;;-4.20;99.90;;;;;;5051190;28;20521;-71
2021/01/11 00:12:03;;;;;;;42.10;14.80;;;-4.30;99.90;;;;;;5036466;28;20481;-71
2021/01/11 00:14:29;;;;;;;39.57;16.17;;;-4.30;99.90;;;;;;5041502;28;20563;-71
2021/01/11 00:16:55;;;;;;;39.83;16.20;;;-4.30;99.90;;;;;;5056267;28;20402;-71
2021/01/11 00:19:20;;;;;;;44.33;17.17;;;-4.30;99.90;;;;;;5055419;28;20979;-71
2021/01/11 00:21:46;;;;;;;30.23;14.17;;;-4.30;99.90;;;;;;5056711;28;20175;-71
2021/01/11 00:24:12;;;;;;;39.00;16.37;;;-4.30;99.90;;;;;;5055807;28;20210;-71
2021/01/11 00:26:38;;;;;;;34.20;14.90;;;-4.30;99.90;;;;;;5055241;28;20930;-71
2021/01/11 00:29:03;;;;;;;26.00;11.53;;;-4.30;99.90;;;;;;5056040;28;20180;-71
2021/01/11 00:31:29;;;;;;;43.00;15.23;;;-4.30;99.90;;;;;;5041356;28;20722;-71
2021/01/11 00:33:55;;;;;;;44.23;15.03;;;-4.20;99.90;;;;;;5035738;28;20227;-71
2021/01/11 00:36:21;;;;;;;38.97;16.27;;;-4.20;99.90;;;;;;5035980;28;20209;-71
2021/01/11 00:38:47;;;;;;;31.60;14.20;;;-4.20;99.90;;;;;;5035948;28;20168;-71
2021/01/11 00:41:20;;;;;;;31.90;12.40;;;-4.30;99.90;;;;;;5049877;28;20459;-71
2021/01/11 00:43:46;;;;;;;43.00;15.70;;;-4.30;99.90;;;;;;5055045;28;20438;-71
2021/01/11 00:46:21;;;;;;;36.50;14.73;;;-4.30;99.90;;;;;;5054748;28;20431;-71
2021/01/11 00:48:46;;;;;;;33.40;15.80;;;-4.20;99.90;;;;;;5055510;28;20390;-71
2021/01/11 00:51:12;;;;;;;31.47;14.90;;;-4.20;99.90;;;;;;5054654;28;20792;-71
2021/01/11 00:53:38;;;;;;;33.93;14.93;;;-4.20;99.90;;;;;;5055247;28;20618;-72
2021/01/11 00:56:03;;;;;;;32.83;14.33;;;-4.20;99.90;;;;;;5054678;28;20180;-71
2021/01/11 00:58:29;;;;;;;40.80;16.77;;;-4.20;99.90;;;;;;5055515;28;20262;-72
2021/01/11 01:00:55;;;;;;;35.40;14.17;;;-4.20;99.90;;;;;;5054852;28;20185;-71
2021/01/11 01:03:20;;;;;;;38.07;16.47;;;-4.10;99.90;;;;;;5055126;28;20173;-71
2021/01/11 01:05:46;;;;;;;29.87;13.30;;;-4.20;99.90;;;;;;5045435;28;20180;-71
2021/01/11 01:08:11;;;;;;;32.93;14.17;;;-4.20;99.90;;;;;;5035172;28;20653;-71
2021/01/11 01:10:37;;;;;;;46.23;15.00;;;-4.20;99.90;;;;;;5041985;28;20180;-71
2021/01/11 01:13:02;;;;;;;32.13;15.70;;;-4.10;99.90;;;;;;5054945;28;20619;-71
2021/01/11 01:15:28;;;;;;;33.80;14.67;;;-4.00;99.90;;;;;;5054324;28;20201;-71
2021/01/11 01:17:54;;;;;;;31.73;15.00;;;-4.00;99.90;;;;;;5053945;28;20649;-71
2021/01/11 01:20:19;;;;;;;40.00;14.93;;;-3.90;99.90;;;;;;5054290;28;20181;-71
2021/01/11 01:22:50;;;;;;;40.57;18.77;;;-3.90;99.90;;;;;;5055087;28;20179;-71
2021/01/11 01:25:16;;;;;;;32.47;15.60;;;-3.90;99.90;;;;;;5054243;28;20559;-71
2021/01/11 01:27:42;;;;;;;34.40;16.57;;;-3.90;99.90;;;;;;5054622;28;20752;-71
2021/01/11 01:30:09;;;;;;;41.57;15.77;;;-3.90;99.90;;;;;;5054069;28;20457;-71
2021/01/11 01:32:35;;;;;;;41.10;15.57;;;-3.90;99.90;;;;;;5054438;28;20214;-71
2021/01/11 01:35:01;;;;;;;37.23;16.63;;;-3.90;99.90;;;;;;5053611;28;20420;-71
2021/01/11 01:37:27;;;;;;;32.93;14.63;;;-3.80;99.90;;;;;;5054934;28;20968;-71
2021/01/11 01:39:52;;;;;;;36.47;17.43;;;-3.80;99.90;;;;;;5053539;28;20178;-71
2021/01/11 01:42:18;;;;;;;29.97;14.80;;;-3.90;99.90;;;;;;5054628;28;20180;-71
2021/01/11 01:44:43;;;;;;;27.50;15.07;;;-3.90;99.90;;;;;;5054872;28;20217;-71
2021/01/11 01:47:09;;;;;;;40.53;15.97;;;-3.90;99.90;;;;;;5053738;28;20602;-71
2021/01/11 01:49:35;;;;;;;40.10;16.23;;;-3.90;99.90;;;;;;5054328;28;20180;-71
2021/01/11 01:52:02;;;;;;;36.20;17.50;;;-3.90;99.90;;;;;;5036689;28;20260;-71
2021/01/11 01:54:27;;;;;;;39.13;15.30;;;-4.00;99.90;;;;;;5045090;28;20568;-71
2021/01/11 01:56:54;;;;;;;37.53;15.67;;;-4.00;99.90;;;;;;5052983;28;20443;-71
2021/01/11 01:59:21;;;;;;;37.47;14.90;;;-4.00;99.90;;;;;;5054285;28;20489;-71
2021/01/11 02:01:47;;;;;;;28.10;13.80;;;-4.10;99.90;;;;;;5052768;28;20435;-71
2021/01/11 02:04:13;;;;;;;35.27;12.40;;;-4.10;99.90;;;;;;5054094;28;20437;-71
2021/01/11 02:06:43;;;;;;;28.83;12.53;;;-4.10;99.90;;;;;;5039932;28;20238;-71
2021/01/11 02:09:16;;;;;;;42.80;16.83;;;-4.10;99.90;;;;;;5034273;28;20173;-71
2021/01/11 02:11:54;;;;;;;31.60;13.17;;;-4.10;99.90;;;;;;5045450;28;20552;-71
2021/01/11 02:14:32;;;;;;;26.63;10.63;;;-4.10;99.90;;;;;;5054010;28;20432;-71
2021/01/11 02:17:05;;;;;;;25.27;10.40;;;-4.10;99.90;;;;;;5053321;28;21053;-70
2021/01/11 02:19:58;;;;;;;24.10;11.40;;;-4.00;99.90;;;;;;5053846;28;20394;-71
2021/01/11 02:22:26;;;;;;;29.37;12.63;;;-4.00;99.90;;;;;;5051892;28;20487;-71
2021/01/11 02:25:38;;;;;;;39.13;14.90;;;-4.00;99.90;;;;;;5052769;28;20477;-71
2021/01/11 02:28:28;;;;;;;21.90;11.57;;;-4.10;99.90;;;;;;5053625;28;20425;-71
2021/01/11 02:30:59;;;;;;;35.90;12.17;;;-4.10;99.90;;;;;;5052428;28;20451;-71
2021/01/11 02:33:26;;;;;;;30.67;13.10;;;-4.10;99.90;;;;;;5053227;28;20898;-71
2021/01/11 02:36:08;;;;;;;29.97;11.93;;;-4.10;99.90;;;;;;5052961;28;20400;-71
2021/01/11 02:38:37;;;;;;;35.60;14.53;;;-4.00;99.90;;;;;;5050003;28;20440;-71
2021/01/11 02:41:03;;;;;;;30.53;13.03;;;-4.00;99.90;;;;;;5039099;28;20431;-71
2021/01/11 02:43:28;;;;;;;27.67;12.20;;;-4.00;99.90;;;;;;5054357;28;20903;-71
2021/01/11 02:45:54;;;;;;;27.43;11.33;;;-4.10;99.90;;;;;;5053390;28;20248;-71
2021/01/11 02:48:23;;;;;;;30.13;14.27;;;-4.10;99.90;;;;;;5052471;28;20246;-71
2021/01/11 02:51:14;;;;;;;31.63;13.30;;;-3.90;99.90;;;;;;5053089;28;20180;-71
2021/01/11 02:53:54;;;;;;;39.90;13.17;;;-3.90;99.90;;;;;;5052624;28;20466;-71
2021/01/11 02:56:27;;;;;;;33.20;14.43;;;-4.00;99.90;;;;;;5053475;28;20391;-71
2021/01/11 02:59:01;;;;;;;29.07;12.43;;;-4.10;99.90;;;;;;5053656;28;20926;-71
2021/01/11 03:01:42;;;;;;;29.83;12.73;;;-4.10;99.90;;;;;;5053038;28;20408;-71
2021/01/11 03:04:10;;;;;;;33.40;13.00;;;-4.10;99.90;;;;;;5033315;28;20855;-72
2021/01/11 03:06:36;;;;;;;42.40;14.17;;;-4.10;99.90;;;;;;5033639;28;20890;-71
2021/01/11 03:09:06;;;;;;;38.60;14.07;;;-4.10;99.90;;;;;;5035469;28;20485;-71
2021/01/11 03:11:36;;;;;;;27.03;11.83;;;-4.10;99.90;;;;;;5032827;28;20196;-71
2021/01/11 03:14:04;;;;;;;35.63;13.60;;;;;;;;;;5033269;28;20433;-71
2021/01/11 03:16:30;;;;;;;25.50;11.93;;;;;;;;;;5033323;28;20486;-71
2021/01/11 03:18:56;;;;;;;26.47;12.40;;;;;;;;;;5052308;28;20443;-71
2021/01/11 03:21:22;;;;;;;34.33;13.40;;;-4.00;99.90;;;;;;5053199;28;20407;-71
2021/01/11 03:23:47;;;;;;;28.73;11.70;;;-3.80;99.90;;;;;;5052065;28;20811;-71
2021/01/11 03:26:21;;;;;;;27.50;12.80;;;;;;;;;;5052958;28;20207;-71
2021/01/11 03:28:47;;;;;;;36.60;13.67;;;;;;;;;;5052531;28;20585;-71
2021/01/11 03:31:13;;;;;;;29.33;11.57;;;;;;;;;;5052778;28;20458;-71
2021/01/11 03:33:39;;;;;;;38.47;14.03;;;;;;;;;;5052181;28;20446;-71
2021/01/11 03:36:05;;;;;;;26.37;11.60;;;;;;;;;;5053009;28;20430;-71
2021/01/11 03:38:31;;;;;;;27.93;11.47;;;;;;;;;;5052406;28;20430;-71
2021/01/11 03:41:09;;;;;;;34.13;15.17;;;;;;;;;;5052714;28;20406;-71
2021/01/11 03:43:39;;;;;;;28.80;14.20;;;;;;;;;;5051771;28;20958;-74
2021/01/11 03:46:05;;;;;;;35.73;12.30;;;;;;;;;;5052901;28;20408;-71
2021/01/11 03:48:31;;;;;;;25.30;12.17;;;;;;;;;;5038079;28;20432;-71
2021/01/11 03:50:57;;;;;;;30.73;14.43;;;;;;;;;;5032701;28;20400;-71
2021/01/11 03:53:23;;;;;;;29.93;13.20;;;;;;;;;;5045660;28;20502;-71
2021/01/11 03:55:49;;;;;;;30.63;12.70;;;;;;;;;;5052644;28;20400;-71
2021/01/11 03:58:15;;;;;;;30.07;14.30;;;;;;;;;;5052219;28;20423;-71
2021/01/11 04:00:41;;;;;;;35.03;15.77;;;;;;;;;;5052842;28;20399;-71
2021/01/11 04:03:07;;;;;;;39.00;16.50;;;;;;;;;;5052202;28;21002;-71
2021/01/11 04:05:35;;;;;;;28.63;13.27;;;;;;;;;;5052381;28;20418;-71
2021/01/11 04:08:01;;;;;;;30.43;13.37;;;;;;;;;;5052172;28;20845;-71
2021/01/11 04:10:28;;;;;;;26.27;12.60;;;;;;;;;;5052484;28;20481;-71
2021/01/11 04:12:54;;;;;;;31.47;14.13;;;;;;;;;;5051470;28;20457;-71
2021/01/11 04:15:20;;;;;;;35.40;14.23;;;;;;;;;;5045196;28;20819;-71
2021/01/11 04:17:46;;;;;;;34.50;13.47;;;;;;;;;;5039153;28;20493;-71
2021/01/11 04:20:12;;;;;;;38.03;13.80;;;;;;;;;;5054980;28;20403;-72
2021/01/11 04:22:38;;;;;;;43.17;17.10;;;;;;;;;;5056945;28;20427;-71
2021/01/11 04:25:04;;;;;;;34.30;14.50;;;;;;;;;;5056783;28;20486;-71
2021/01/11 04:27:30;;;;;;;34.07;14.60;;;;;;;;;;5055676;28;20417;-71
2021/01/11 04:29:56;;;;;;;45.53;16.50;;;;;;;;;;5056545;28;20774;-71
2021/01/11 04:32:22;;;;;;;36.70;14.77;;;;;;;;;;5055026;28;20462;-71
2021/01/11 04:34:48;;;;;;;27.50;12.90;;;;;;;;;;5055630;28;20985;-71
2021/01/11 04:37:14;;;;;;;29.53;13.03;;;;;;;;;;5054953;28;20452;-71
2021/01/11 04:39:40;;;;;;;35.53;14.50;;;;;;;;;;5055667;28;20404;-71
2021/01/11 04:42:10;;;;;;;33.73;16.17;;;;;;;;;;5055118;28;20418;-71
2021/01/11 04:44:37;;;;;;;33.10;12.30;;;;;;;;;;5035655;28;20556;-71
2021/01/11 04:47:03;;;;;;;32.77;12.97;;;;;;;;;;5035614;28;20910;-71
2021/01/11 04:49:29;;;;;;;34.40;14.27;;;;;;;;;;5056231;28;20433;-71
2021/01/11 04:51:56;;;;;;;36.43;13.17;;;;;;;;;;5055621;28;20505;-71
2021/01/11 04:54:22;;;;;;;34.13;13.97;;;;;;;;;;5055039;28;20806;-71
2021/01/11 04:56:49;;;;;;;37.00;15.67;;;;;;;;;;5055366;28;20418;-71
2021/01/11 04:59:19;;;;;;;36.37;15.47;;;;;;;;;;5054434;28;20914;-71
2021/01/11 05:01:48;;;;;;;29.30;14.37;;;;;;;;;;5054065;28;20440;-71
2021/01/11 05:04:15;;;;;;;31.20;13.10;;;;;;;;;;5054719;28;20446;-71
2021/01/11 05:06:45;;;;;;;37.83;14.03;;;;;;;;;;5046082;28;20436;-71
2021/01/11 05:09:14;;;;;;;34.60;13.83;;;;;;;;;;5051572;28;20434;-71
2021/01/11 05:11:40;;;;;;;35.37;15.17;;;;;;;;;;5054958;28;20451;-71
2021/01/11 05:14:06;;;;;;;34.37;14.50;;;;;;;;;;5038902;28;20969;-71
2021/01/11 05:16:33;;;;;;;30.93;14.67;;;;;;;;;;5035219;28;20399;-71
2021/01/11 05:19:32;;;;;;;35.00;15.30;;;;;;;;;;5049617;28;20894;-71
2021/01/11 05:21:58;;;;;;;35.00;15.53;;;;;;;;;;5043051;28;20419;-71
2021/01/11 05:24:36;;;;;;;31.40;13.40;;;;;;;;;;5053751;28;20447;-71
2021/01/11 05:27:04;;;;;;;32.33;14.40;;;;;;;;;;5054612;28;20395;-71
2021/01/11 05:29:30;;;;;;;29.20;13.97;;;;;;;;;;5053886;28;20783;-71
2021/01/11 05:32:00;;;;;;;32.20;14.10;;;;;;;;;;5054368;28;20457;-71
2021/01/11 05:34:45;;;;;;;22.40;11.70;;;;;;;;;;5053757;28;20485;-71
2021/01/11 05:37:11;;;;;;;29.73;12.77;;;;;;;;;;5054771;28;20394;-71
2021/01/11 05:39:37;;;;;;;31.37;15.27;;;;;;;;;;5054017;28;20428;-71
2021/01/11 05:42:03;;;;;;;31.10;14.03;;;;;;;;;;5054349;28;20502;-71
2021/01/11 05:44:29;;;;;;;31.17;15.40;;;;;;;;;;5053857;28;20470;-71
2021/01/11 05:47:01;;;;;;;31.73;14.87;;;;;;;;;;5054284;28;20425;-71
2021/01/11 05:49:28;;;;;;;33.77;14.60;;;;;;;;;;5037020;28;20468;-71
2021/01/11 05:51:54;;;;;;;25.23;11.60;;;;;;;;;;5034912;28;20452;-71
2021/01/11 05:54:27;;;;;;;31.17;14.07;;;;;;;;;;5049703;28;20472;-71
2021/01/11 05:56:59;;;;;;;35.43;14.80;;;;;;;;;;5054104;28;20827;-71
2021/01/11 05:59:25;;;;;;;28.87;13.87;;;;;;;;;;5053276;28;20472;-71
2021/01/11 06:01:59;;;;;;;27.87;14.27;;;;;;;;;;5054004;28;20430;-71
2021/01/11 06:04:25;;;;;;;32.20;14.67;;;;;;;;;;5053527;28;20970;-71
2021/01/11 06:06:54;;;;;;;35.50;14.00;;;;;;;;;;5054160;28;20437;-71
2021/01/11 06:09:21;;;;;;;26.57;13.30;;;;;;;;;;5053316;28;20426;-71
2021/01/11 06:11:48;;;;;;;36.20;15.60;;;;;;;;;;5053052;28;20466;-71
2021/01/11 06:14:14;;;;;;;29.57;15.27;;;;;;;;;;5053408;28;20570;-71
2021/01/11 06:16:40;;;;;;;28.10;12.30;;;;;;;;;;5052510;28;20402;-71
2021/01/11 06:19:06;;;;;;;28.53;11.70;;;;;;;;;;5053294;28;20786;-71
2021/01/11 06:21:32;;;;;;;26.50;12.30;;;;;;;;;;5053657;28;20414;-71
2021/01/11 06:24:15;;;;;;;31.40;15.00;;;;;;;;;;5040980;28;20447;-71
2021/01/11 06:26:41;;;;;;;32.40;14.20;;;;;;;;;;5033648;28;20458;-71
2021/01/11 06:29:27;;;;;;;26.73;13.97;;;;;;;;;;5047794;28;20421;-71
2021/01/11 06:31:56;;;;;;;29.73;13.60;;;;;;;;;;5065283;28;20531;-67
2021/01/11 06:34:35;;;;;;;31.03;13.80;;;;;;;;;;5053570;28;20958;-68
2021/01/11 06:37:02;;;;;;;27.23;12.90;;;;;;;;;;5061239;28;20425;-67
2021/01/11 06:39:31;;;;;;;24.30;12.10;;;;;;;;;;5056264;28;20418;-68
2021/01/11 06:41:59;;;;;;;30.30;15.27;;;;;;;;;;5061848;28;20452;-67
2021/01/11 06:44:25;;;;;;;23.93;13.43;;;;;;;;;;5052815;28;20468;-68
2021/01/11 06:46:52;;;;;;;30.23;12.97;;;;;;;;;;5068063;28;20445;-67
2021/01/11 06:49:37;;;;;;;29.23;12.70;;;;;;;;;;5058955;28;20423;-67
2021/01/11 06:52:06;;;;;;;36.22;17.60;;;;;;;;;;5053594;28;20849;-68
2021/01/11 06:54:36;;;;;;;35.03;16.23;;;;;;;;;;5052527;28;20227;-68
2021/01/11 06:57:09;;;;;;;30.03;15.13;;;;;;;;;;5052952;28;20406;-68
2021/01/11 06:59:38;;;;;;;33.70;17.67;;;;;;;;;;5061470;28;20788;-67
2021/01/11 07:02:18;;;;;;;23.53;11.07;;;;;;;;;;5056379;28;20427;-68
2021/01/11 07:04:44;;;;;;;31.90;14.37;;;;;;;;;;5060940;28;20437;-68
2021/01/11 07:07:16;;;;;;;27.73;11.97;;;;;;;;;;5067256;28;20499;-68
2021/01/11 07:09:49;;;;;;;31.57;14.57;;;;;;;;;;5052711;28;20418;-69
2021/01/11 07:12:18;;;;;;;31.57;12.27;;;;;;;;;;5046059;28;20454;-71
2021/01/11 07:14:53;;;;;;;24.90;11.60;;;;;;;;;;5044168;28;20478;-70
2021/01/11 07:17:35;;;;;;;31.00;12.97;;;;;;;;;;5057570;28;20478;-70
2021/01/11 07:20:01;;;;;;;32.33;12.73;;;;;;;;;;5067061;28;20418;-69
2021/01/11 07:22:27;;;;;;;41.77;14.50;;;;;;;;;;5072868;28;20402;-70
2021/01/11 07:24:53;;;;;;;32.30;14.20;;;;;;;;;;5056478;28;20456;-69
2021/01/11 07:27:19;;;;;;;29.77;11.83;;;;;;;;;;5052880;28;20750;-69
2021/01/11 07:29:46;;;;;;;30.90;12.30;;;;;;;;;;5054792;28;20431;-69
2021/01/11 07:32:12;;;;;;;32.20;13.40;;;;;;;;;;5055174;28;20454;-68
2021/01/11 07:34:38;;;;;;;23.57;12.17;;;;;;;;;;5052090;28;20529;-69
2021/01/11 07:37:06;;;;;;;27.40;13.47;;;;;;;;;;5052462;28;20406;-68
2021/01/11 07:39:35;;;;;;;25.90;11.53;;;;;;;;;;5051135;28;20939;-69
2021/01/11 07:42:03;;;;;;;29.63;12.60;;;;;;;;;;5065086;28;20866;-69
2021/01/11 07:44:33;;;;;;;31.90;13.97;;;;;;;;;;5075768;22;20527;-81
2021/01/11 07:47:01;;;;;;;22.80;11.73;;;;;;;;;;5078121;28;20423;-81
2021/01/11 07:49:28;;;;;;;33.47;14.03;;;;;;;;;;5079399;28;20432;-82
2021/01/11 07:51:54;;;;;;;37.30;14.77;;;;;;;;;;5076847;28;20483;-82
2021/01/11 07:54:21;;;;;;;27.53;15.10;;;;;;;;;;5074794;28;20954;-86
2021/01/11 07:56:48;;;;;;;31.33;12.57;;;;;;;;;;5065151;28;20418;-81
2021/01/11 07:59:15;;;;;;;33.23;14.37;;;;;;;;;;5067489;28;20508;-83
2021/01/11 08:01:42;;;;;;;25.47;14.40;;;;;;;;;;5083051;22;20631;-65
2021/01/11 08:04:10;;;;;;;40.63;14.47;;;;;;;;;;5064416;28;20533;-66
2021/01/11 08:06:53;;;;;;;30.53;13.00;;;;;;;;;;5075037;28;20472;-68
2021/01/11 08:09:20;;;;;;;28.13;13.00;;;;;;;;;;5077505;28;20943;-66
2021/01/11 08:11:46;;;;;;;25.97;13.03;;;;;;;;;;5071342;28;20453;-65
2021/01/11 08:14:12;;;;;;;32.37;12.13;;;;;;;;;;5069272;28;20448;-67
2021/01/11 08:16:42;;;;;;;33.47;13.73;;;;;;;;;;5073600;28;20418;-65
2021/01/11 08:19:11;;;;;;;30.07;13.23;;;;;;;;;;5072842;28;20419;-66
2021/01/11 08:21:39;;;;;;;35.03;13.87;;;;;;;;;;5071933;28;20434;-66
2021/01/11 08:24:09;;;;;;;34.00;13.57;;;;;;;;;;5065025;28;22412;-66
2021/01/11 08:27:01;;;;;;;35.87;13.73;;;;;;;;;;5060680;28;20900;-69
2021/01/11 08:29:30;;;;;;;36.87;13.90;;;;;;;;;;5066774;28;20526;-69
2021/01/11 08:31:56;;;;;;;38.35;18.13;;;;;;;;;;5071303;28;20426;-69
2021/01/11 08:34:22;;;;;;;33.60;16.17;;;;;;;;;;5071984;28;20208;-68
2021/01/11 08:36:48;;;;;;;35.07;15.23;;;;;;;;;;5069973;28;20488;-66
2021/01/11 08:39:15;;;;;;;49.33;23.50;;;;;;;;;;5070585;28;20517;-67
2021/01/11 08:41:48;;;;;;;40.80;16.67;;;;;;;;;;5075351;28;20186;-68
2021/01/11 08:44:24;;;;;;;36.17;15.90;;;;;;;;;;5075340;28;20453;-67
2021/01/11 08:46:53;;;;;;;29.87;13.70;;;;;;;;;;5070846;28;20416;-69
2021/01/11 08:49:20;;;;;;;33.00;15.70;;;;;;;;;;5080263;28;20424;-69
2021/01/11 08:51:47;;;;;;;27.17;14.13;;;;;;;;;;5075774;28;20461;-68
2021/01/11 08:54:25;;;;;;;31.17;12.87;;;;;;;;;;5078824;28;20525;-68
2021/01/11 08:56:52;;;;;;;33.63;13.07;;;;;;;;;;5069662;28;20471;-71
2021/01/11 08:59:18;;;;;;;41.55;16.13;;;;;;;;;;5078731;28;20420;-72
2021/01/11 09:01:44;;;;;;;25.47;13.87;;;;;;;;;;5069685;28;20327;-71
2021/01/11 09:04:12;;;;;;;32.40;15.23;;;;;;;;;;5072249;28;20992;-72
2021/01/11 09:06:39;;;;;;;46.77;16.60;;;;;;;;;;5072118;28;20436;-71
2021/01/11 09:09:05;;;;;;;26.87;14.00;;;;;;;;;;5073749;28;21161;-70
2021/01/11 09:11:31;;;;;;;28.63;14.23;;;;;;;;;;5076531;28;20445;-70
2021/01/11 09:14:04;;;;;;;35.67;14.03;;;;;;;;;;5075440;28;20487;-70
2021/01/11 09:16:31;;;;;;;32.13;13.97;;;;;;;;;;5073255;28;20415;-71
2021/01/11 09:19:09;;;;;;;33.80;14.37;;;;;;;;;;5075110;28;20505;-71
2021/01/11 09:21:36;;;;;;;24.93;13.77;;;;;;;;;;5078485;28;20490;-71
2021/01/11 09:24:02;;;;;;;43.23;15.13;;;;;;;;;;5070847;28;20442;-71
2021/01/11 09:26:32;;;;;;;39.03;17.10;;;;;;;;;;5066975;28;21010;-68
2021/01/11 09:28:58;;;;;;;30.07;13.40;;;;;;;;;;5071327;28;20437;-68
2021/01/11 09:31:24;;;;;;;40.00;14.33;;;;;;;;;;5077407;28;20466;-68
2021/01/11 09:33:52;;;;;;;39.33;14.27;;;;;;;;;;5069807;28;20427;-68
2021/01/11 09:36:18;;;;;;;33.60;14.77;;;;;;;;;;5072484;28;20758;-68
2021/01/11 09:38:44;;;;;;;21.67;12.77;;;;;;;;;;5071908;28;20821;-68
2021/01/11 09:41:12;;;;;;;31.77;14.70;;;;;;;;;;5073704;28;20424;-68
2021/01/11 09:43:38;;;;;;;41.27;15.47;;;;;;;;;;5071755;28;20417;-69
2021/01/11 09:46:04;;;;;;;29.43;13.10;;;;;;;;;;5070286;28;20453;-68
2021/01/11 09:48:30;;;;;;;29.90;13.00;;;;;;;;;;5074451;28;20433;-68
2021/01/11 09:50:56;;;;;;;26.07;13.43;;;;;;;;;;5072010;28;20964;-72
2021/01/11 09:53:22;;;;;;;36.92;17.58;;;;;;;;;;5071571;28;20446;-68
2021/01/11 09:55:48;;;;;;;38.83;16.50;;;;;;;;;;5071946;28;20192;-68
2021/01/11 09:58:14;;;;;;;29.97;13.60;;;;;;;;;;5073071;28;20417;-68
2021/01/11 10:00:40;;;;;;;38.77;16.87;;;;;;;;;;5078920;28;20453;-68
2021/01/11 10:03:06;;;;;;;35.00;15.17;;;;;;;;;;5071258;28;20456;-66
2021/01/11 10:05:33;;;;;;;33.43;13.50;;;;;;;;;;5088079;28;20448;-66
2021/01/11 10:07:59;;;;;;;29.60;12.90;;;;;;;;;;5071688;28;20563;-66
2021/01/11 10:10:25;;;;;;;28.63;13.70;;;;;;;;;;5074251;28;20914;-70
2021/01/11 10:12:51;;;;;;;32.63;13.60;;;;;;;;;;5069399;28;20824;-71
2021/01/11 10:15:17;;;;;;;29.97;12.40;;;;;;;;;;5066091;28;20449;-69
2021/01/11 10:17:43;;;;;;;34.40;14.77;;;;;;;;;;5076631;28;20414;-68
2021/01/11 10:20:10;;;;;;;30.40;14.47;;;;;;;;;;5069624;28;20426;-69
2021/01/11 10:22:36;;;;;;;36.00;14.60;;;;;;;;;;5071452;28;20515;-68
2021/01/11 10:25:03;;;;;;;31.85;15.60;;;;;;;;;;5079824;28;20762;-67
2021/01/11 10:27:29;;;;;;;28.30;14.87;;;;;;;;;;5070153;28;20244;-70
2021/01/11 10:29:55;;;;;;;34.43;14.20;;;;;;;;;;5078460;28;20482;-68
2021/01/11 10:32:21;;;;;;;34.53;14.23;;;;;;;;;;5079901;28;20457;-68
2021/01/11 10:34:47;;;;;;;25.70;13.33;;;;;;;;;;5064880;28;20483;-68
2021/01/11 10:37:13;;;;;;;35.57;15.00;;;;;;;;;;5071287;28;20860;-68
2021/01/11 10:39:39;;;;;;;32.60;14.13;;;;;;;;;;5072343;28;20535;-70
2021/01/11 10:42:05;;;;;;;25.43;12.47;;;;;;;;;;5075083;28;20425;-68
2021/01/11 10:44:31;;;;;;;28.40;12.68;;;;;;;;;;5092029;28;20397;-68
2021/01/11 10:46:59;;;;;;;28.80;14.17;;;;;;;;;;5077184;28;20182;-67
2021/01/11 10:49:25;;;;;;;27.73;13.00;;;;;;;;;;5071025;28;20430;-68
2021/01/11 10:51:53;;;;;;;27.67;13.93;;;;;;;;;;5068250;28;20449;-68
2021/01/11 10:54:19;;;;;;;25.40;12.93;;;;;;;;;;5075126;28;20426;-72
2021/01/11 10:56:45;;;;;;;25.93;13.30;;;;;;;;;;5071922;28;20765;-75
2021/01/11 10:59:12;;;;;;;27.70;12.97;;;;;;;;;;5070990;28;20472;-72
2021/01/11 11:01:38;;;;;;;29.97;12.57;;;;;;;;;;5070954;28;21089;-71
2021/01/11 11:04:04;;;;;;;28.47;12.67;;;;;;;;;;5063334;28;20442;-74
2021/01/11 11:06:30;;;;;;;32.35;15.80;;;;;;;;;;5064683;28;20406;-72
2021/01/11 11:08:56;;;;;;;33.60;16.80;;;;;;;;;;5086618;28;20419;-71
2021/01/11 11:11:22;;;;;;;37.20;17.13;;;;;;;;;;5070721;28;20830;-74
2021/01/11 11:13:48;;;;;;;34.17;12.80;;;;;;;;;;5074467;28;20428;-69
2021/01/11 11:16:14;;;;;;;29.58;15.32;;;;;;;;;;5071501;28;20410;-73
2021/01/11 11:18:41;;;;;;;21.20;12.57;;;;;;;;;;5084117;28;20500;-71
2021/01/11 11:21:08;;;;;;;30.17;15.10;;;;;;;;;;5070933;28;20424;-73
2021/01/11 11:23:34;;;;;;;27.70;12.97;;;;;;;;;;5071325;28;20429;-74
2021/01/11 11:26:01;;;;;;;22.80;11.90;;;;;;;;;;5071008;28;20441;-73
2021/01/11 11:28:27;;;;;;;26.53;13.53;;;;;;;;;;5073242;28;20428;-72
2021/01/11 11:30:53;;;;;;;24.27;13.10;;;;;;;;;;5090426;28;20447;-73
2021/01/11 11:35:55;;;;;;;19.70;10.97;;;;;;;;;;5074770;28;20474;-72
2021/01/11 11:38:22;;;;;;;26.67;12.43;;;;;;;;;;5088135;28;20912;-72
2021/01/11 11:40:49;;;;;;;31.73;13.50;;;;;;;;;;5079282;28;20473;-74
2021/01/11 11:43:15;;;;;;;28.85;14.57;;;;;;;;;;5070108;28;20424;-71
2021/01/11 11:45:42;;;;;;;25.30;13.03;;;;;;;;;;5073790;28;20194;-72
2021/01/11 11:48:09;;;;;;;22.67;12.13;;;;;;;;;;5074746;28;20525;-74
2021/01/11 11:50:36;;;;;;;31.43;12.90;;;;;;;;;;5075211;28;20417;-75
2021/01/11 11:53:02;;;;;;;25.67;13.60;;;;;;;;;;5071118;28;20489;-74
2021/01/11 11:55:28;;;;;;;27.73;13.53;;;;;;;;;;5074195;28;20467;-74
2021/01/11 11:57:54;;;;;;;29.93;13.77;;;;;;;;;;5069205;28;20964;-73
2021/01/11 12:00:20;;;;;;;29.10;12.57;;;;;;;;;;5071877;28;20806;-75
2021/01/11 12:02:48;;;;;;;23.60;11.50;;;;;;;;;;5067464;28;20421;-74
2021/01/11 12:05:15;;;;;;;19.00;12.00;;;;;;;;;;5073924;28;20444;-73
2021/01/11 12:07:41;;;;;;;28.23;12.80;;;;;;;;;;5073834;28;20472;-73
2021/01/11 12:10:09;;;;;;;24.77;11.50;;;-3.80;99.90;;;;;;5073345;28;20417;-73
2021/01/11 12:12:36;;;;;;;31.10;13.70;;;;;;;;;;5075819;28;20453;-74
2021/01/11 12:15:02;;;;;;;24.13;13.03;;;;;;;;;;5090256;28;20548;-73
2021/01/11 12:17:31;;;;;;;25.57;13.80;;;;;;;;;;5071182;28;20579;-74
2021/01/11 12:19:58;;;;;;;26.10;12.20;;;;;;;;;;5074873;28;20422;-73
2021/01/11 12:22:24;;;;;;;33.90;14.27;;;;;;;;;;5074512;28;20419;-73
2021/01/11 12:24:50;;;;;;;26.03;13.07;;;;;;;;;;5083166;28;20463;-74
2021/01/11 12:27:16;;;;;;;26.67;14.27;;;;;;;;;;5066084;28;20950;-73
2021/01/11 12:29:42;;;;;;;28.83;12.83;;;;;;;;;;5073429;28;20760;-73
2021/01/11 12:32:09;;;;;;;29.10;12.97;;;;;;;;;;5073531;28;20597;-75
2021/01/11 12:34:42;;;;;;;23.17;11.13;;;;;;;;;;5077992;28;20450;-75
2021/01/11 12:37:15;;;;;;;22.83;12.57;;;;;;;;;;5073658;28;20408;-75
2021/01/11 12:39:42;;;;;;;23.90;11.07;;;;;;;;;;5071857;28;20428;-73
2021/01/11 12:42:08;;;;;;;28.60;11.57;;;;;;;;;;5074352;28;20425;-74
2021/01/11 12:44:34;;;;;;;31.17;13.23;;;;;;;;;;5070446;28;20862;-73
2021/01/11 12:47:00;;;;;;;28.00;12.60;;;;;;;;;;5073939;28;20933;-72
2021/01/11 12:49:27;;;;;;;23.57;11.60;;;;;;;;;;5072991;28;20560;-73
2021/01/11 12:51:53;;;;;;;26.67;13.13;;;;;;;;;;5067996;28;20449;-74
2021/01/11 12:54:20;;;;;;;24.57;11.00;;;;;;;;;;5076677;28;20453;-76
2021/01/11 12:56:46;;;;;;;23.83;11.67;;;;;;;;;;5073466;28;20696;-75
2021/01/11 12:59:12;;;;;;;23.97;13.03;;;;;;;;;;5083923;28;20433;-73
2021/01/11 13:01:39;;;;;;;30.27;14.27;;;;;;;;;;5074235;28;20503;-73
2021/01/11 13:04:06;;;;;;;17.83;9.67;;;;;;;;;;5082934;28;20479;-74
2021/01/11 13:06:32;;;;;;;20.90;10.43;;;;;;;;;;5073402;28;20774;-74
2021/01/11 13:08:59;;;;;;;22.50;13.23;;;;;;;;;;5077317;28;20424;-74
2021/01/11 13:11:25;;;;;;;27.83;13.00;;;;;;;;;;5055409;28;20453;-73
2021/01/11 13:13:52;;;;;;;26.97;12.87;;;;;;;;;;5076018;28;20433;-73
2021/01/11 13:16:25;;;;;;;31.80;13.27;;;;;;;;;;5072803;28;20455;-73
2021/01/11 13:18:52;;;;;;;24.47;14.40;;;;;;;;;;5067166;28;20425;-72
2021/01/11 13:21:18;;;;;;;23.50;13.10;;;;;;;;;;5073126;28;20440;-72
2021/01/11 13:23:44;;;;;;;23.63;12.77;;;;;;;;;;5072393;28;20914;-72
2021/01/11 13:26:10;;;;;;;26.90;10.97;;;;;;;;;;5071904;28;20412;-72
2021/01/11 13:28:36;;;;;;;29.43;15.50;;;;;;;;;;5075235;28;20804;-72
2021/01/11 13:31:08;;;;;;;25.23;13.07;;;;;;;;;;5073634;28;20410;-72
2021/01/11 13:33:34;;;;;;;29.63;13.97;;;;;;;;;;5071842;28;20452;-72
2021/01/11 13:36:00;;;;;;;26.13;12.70;;;;;;;;;;5073151;28;20437;-72
2021/01/11 13:38:27;;;;;;;24.30;12.40;;;;;;;;;;5073724;28;20965;-72
2021/01/11 13:40:53;;;;;;;20.97;10.03;;;;;;;;;;5081774;28;20982;-73
2021/01/11 13:43:19;;;;;;;23.30;11.03;;;;;;;;;;5056975;28;20885;-72
2021/01/11 13:45:49;;;;;;;24.33;12.27;;;;;;;;;;5073964;28;20560;-73
2021/01/11 13:48:16;;;;;;;23.17;10.13;;;;;;;;;;5070335;28;20468;-72
2021/01/11 13:50:42;;;;;;;27.67;12.30;;;;;;;;;;5072800;28;20769;-74
2021/01/11 13:53:09;;;;;;;22.93;12.10;;;;;;;;;;5070251;28;20471;-74
2021/01/11 13:55:35;;;;;;;32.17;13.17;;;;;;;;;;5065263;28;20500;-74
2021/01/11 13:58:01;;;;;;;26.50;14.07;;;;;;;;;;5071084;28;20426;-73